Time;durP1;ratioP1;P1;durP2;ratioP2;P2;SDS_P1;SDS_P2;PMS_P1;PMS_P2;Temp;Humidity;BMP_temperature;BMP_pressure;BME280_temperature;BME280_humidity;BME280_pressure;Samples;Min_cycle;Max_cycle;Signal;HPM_P1;HPM_P2
2022/05/26 00:03:08;;;;;;;1.83;0.60;;;16.50;99.90;;;;;;6654155;88;20261;-77
2022/05/26 00:13:08;;;;;;;2.10;0.60;;;16.40;99.90;;;;;;6651958;88;20196;-77
2022/05/26 00:23:09;;;;;;;1.93;0.50;;;16.50;99.90;;;;;;6652496;88;20710;-76
2022/05/26 00:33:10;;;;;;;2.62;0.50;;;16.40;99.90;;;;;;6651286;88;20191;-79
2022/05/26 00:43:11;;;;;;;1.27;0.40;;;16.30;99.90;;;;;;6651315;89;20679;-78
2022/05/26 00:53:17;;;;;;;1.62;0.50;;;16.20;99.90;;;;;;6661377;89;20203;-78
2022/05/26 01:03:41;;;;;;;1.50;0.47;;;16.00;99.90;;;;;;6637111;89;20336;-79
2022/05/26 01:13:46;;;;;;;2.90;0.65;;;16.00;99.90;;;;;;6638310;89;20625;-78
2022/05/26 01:24:05;;;;;;;1.08;0.30;;;15.90;99.90;;;;;;6634470;89;20326;-78
2022/05/26 01:34:15;;;;;;;2.35;0.62;;;15.80;99.90;;;;;;6635314;89;20192;-79
2022/05/26 01:44:38;;;;;;;1.33;0.50;;;15.70;99.90;;;;;;6634717;88;20233;-77
2022/05/26 01:55:17;;;;;;;2.00;0.40;;;15.70;99.90;;;;;;6634017;89;20245;-78
2022/05/26 02:05:24;;;;;;;2.22;0.50;;;15.50;99.90;;;;;;6633541;89;20266;-78
2022/05/26 02:15:37;;;;;;;1.10;0.50;;;15.50;99.90;;;;;;6647999;89;20591;-79
2022/05/26 02:25:38;;;;;;;1.40;0.50;;;15.40;99.90;;;;;;6633835;89;20279;-77
2022/05/26 02:35:43;;;;;;;2.03;0.60;;;15.40;99.90;;;;;;6633849;89;20201;-77
2022/05/26 02:45:50;;;;;;;3.00;0.68;;;15.40;99.90;;;;;;6633714;89;20199;-77
2022/05/26 02:56:01;;;;;;;0.80;0.40;;;15.20;99.90;;;;;;6634948;89;20204;-77
2022/05/26 03:06:16;;;;;;;1.77;0.45;;;15.00;99.90;;;;;;6634885;89;20198;-77
2022/05/26 03:16:17;;;;;;;1.42;0.40;;;15.00;99.90;;;;;;6634662;89;20181;-77
2022/05/26 03:26:17;;;;;;;1.15;0.40;;;15.00;99.90;;;;;;6632362;89;20313;-78
2022/05/26 03:46:38;;;;;;;1.48;0.47;;;15.00;99.90;;;;;;6639962;89;20854;-78
2022/05/26 03:56:39;;;;;;;1.20;0.43;;;15.00;99.90;;;;;;6639007;89;20803;-78
2022/05/26 04:06:39;;;;;;;1.20;0.47;;;15.00;99.90;;;;;;6638656;88;20268;-78
2022/05/26 04:16:40;;;;;;;2.75;0.50;;;15.10;99.90;;;;;;6640006;88;20189;-79
2022/05/26 04:26:41;;;;;;;1.83;0.70;;;15.10;99.90;;;;;;6638956;89;20213;-77
2022/05/26 04:36:41;;;;;;;2.60;0.70;;;15.10;99.90;;;;;;6640847;89;20207;-78
2022/05/26 04:46:42;;;;;;;1.60;0.50;;;15.30;99.90;;;;;;6637763;88;20609;-79
2022/05/26 04:56:42;;;;;;;1.20;0.57;;;15.30;99.90;;;;;;6635394;89;20242;-79
2022/05/26 05:06:43;;;;;;;3.92;0.70;;;15.40;99.90;;;;;;6634504;89;20196;-78
2022/05/26 05:16:45;;;;;;;3.28;0.88;;;15.20;99.90;;;;;;6635391;89;20188;-78
2022/05/26 05:26:50;;;;;;;2.75;1.00;;;15.10;99.90;;;;;;6645086;89;20363;-79
2022/05/26 05:36:51;;;;;;;6.53;0.87;;;15.10;99.90;;;;;;6653267;89;20195;-78
2022/05/26 05:57:14;;;;;;;3.25;1.17;;;15.50;99.90;;;;;;6639364;78;20749;-78
2022/05/26 06:07:17;;;;;;;4.28;1.20;;;15.90;99.90;;;;;;6638082;89;20243;-79
2022/05/26 06:17:18;;;;;;;3.58;1.42;;;16.30;99.90;;;;;;6636759;89;20198;-79
2022/05/26 06:37:39;;;;;;;5.68;1.70;;;16.60;99.90;;;;;;6621730;89;20679;-80
2022/05/26 06:47:40;;;;;;;7.00;1.70;;;17.10;99.90;;;;;;6622252;89;20330;-79
2022/05/26 06:57:41;;;;;;;4.10;1.83;;;16.90;99.90;;;;;;6624229;89;20254;-78
2022/05/26 07:07:41;;;;;;;10.30;2.30;;;17.70;99.90;;;;;;6636289;89;20193;-79
2022/05/26 07:17:42;;;;;;;6.18;1.85;;;17.40;99.90;;;;;;6639358;89;20998;-80
2022/05/26 07:27:43;;;;;;;5.22;1.50;;;17.50;99.90;;;;;;6640260;89;20192;-80
2022/05/26 07:48:03;;;;;;;4.75;2.10;;;17.00;99.90;;;;;;6654003;89;20200;-80
2022/05/26 07:58:03;;;;;;;4.47;1.80;;;17.70;99.90;;;;;;6639935;89;20192;-79
2022/05/26 08:08:04;;;;;;;8.80;2.17;;;18.50;99.90;;;;;;6640528;89;20696;-80
2022/05/26 08:18:05;;;;;;;4.82;2.10;;;18.90;99.90;;;;;;6641534;89;20324;-79
2022/05/26 08:28:06;;;;;;;6.40;2.45;;;18.90;99.90;;;;;;6639845;89;20343;-79
2022/05/26 08:38:06;;;;;;;7.60;1.85;;;19.30;99.90;;;;;;6645353;89;20201;-80
2022/05/26 08:48:11;;;;;;;6.93;2.05;;;18.80;99.90;;;;;;6639698;89;20204;-80
2022/05/26 08:58:18;;;;;;;6.18;1.87;;;20.10;99.90;;;;;;6639159;89;20543;-79
2022/05/26 09:18:40;;;;;;;5.12;2.15;;;21.10;99.90;;;;;;6640504;89;20220;-79
2022/05/26 09:28:48;;;;;;;6.87;1.85;;;21.40;99.90;;;;;;6640880;89;20686;-79
2022/05/26 09:38:49;;;;;;;6.05;2.00;;;21.90;99.40;;;;;;6639828;89;20653;-79
2022/05/26 09:48:54;;;;;;;4.32;1.77;;;21.40;99.90;;;;;;6643479;89;20205;-78
2022/05/26 09:58:55;;;;;;;4.32;1.48;;;21.50;99.90;;;;;;6639504;88;20241;-81
2022/05/26 10:09:16;;;;;;;4.45;1.40;;;21.40;99.10;;;;;;6644081;89;20241;-78
2022/05/26 10:19:51;;;;;;;5.80;1.80;;;21.20;99.90;;;;;;6638459;89;20715;-80
2022/05/26 10:30:20;;;;;;;7.75;1.77;;;23.10;96.30;;;;;;6642100;89;20177;-79
2022/05/26 10:40:38;;;;;;;3.55;1.42;;;23.70;93.70;;;;;;6625634;89;20183;-80
2022/05/26 10:51:33;;;;;;;3.15;1.40;;;23.20;94.00;;;;;;6627998;89;20179;-80
2022/05/26 11:01:35;;;;;;;5.32;1.42;;;24.00;91.90;;;;;;6677286;88;20184;-79
2022/05/26 11:11:37;;;;;;;4.12;1.60;;;23.60;91.20;;;;;;6645148;89;20209;-78
2022/05/26 11:21:38;;;;;;;3.90;1.50;;;22.70;93.00;;;;;;6630658;89;20319;-78
2022/05/26 11:42:39;;;;;;;4.50;1.70;;;23.40;92.00;;;;;;6628763;89;20798;-79
2022/05/26 11:52:40;;;;;;;6.28;1.80;;;23.50;91.00;;;;;;6630790;89;20256;-77
2022/05/26 12:02:42;;;;;;;4.87;1.60;;;22.20;92.00;;;;;;6642785;88;20206;-78
2022/05/26 12:12:42;;;;;;;4.37;2.05;;;23.60;91.60;;;;;;6643495;88;20660;-78
2022/05/26 12:22:52;;;;;;;5.10;2.00;;;22.50;91.70;;;;;;6643640;89;20226;-78
2022/05/26 12:32:53;;;;;;;3.75;1.50;;;23.70;90.30;;;;;;6640343;88;20575;-79
2022/05/26 12:43:25;;;;;;;4.00;1.60;;;24.40;86.50;;;;;;6641743;88;20277;-78
2022/05/26 12:53:29;;;;;;;5.32;1.87;;;23.60;87.30;;;;;;6651200;88;20276;-78
2022/05/26 13:03:40;;;;;;;7.10;2.42;;;25.40;82.50;;;;;;6633646;88;20189;-78
2022/05/26 13:13:47;;;;;;;5.90;2.35;;;24.70;83.40;;;;;;6642114;88;20687;-78
2022/05/26 13:23:50;;;;;;;3.28;1.70;;;25.00;85.70;;;;;;6630703;88;20712;-79
2022/05/26 13:33:51;;;;;;;4.80;1.70;;;25.80;80.50;;;;;;6633683;88;20214;-78
2022/05/26 13:43:53;;;;;;;4.90;1.30;;;25.20;83.40;;;;;;6641135;88;20192;-78
2022/05/26 13:54:31;;;;;;;7.70;1.30;;;25.90;80.40;;;;;;6660319;88;20233;-78
2022/05/26 14:04:42;;;;;;;5.43;1.15;;;26.20;77.30;;;;;;6635080;88;20214;-78
2022/05/26 14:14:44;;;;;;;3.87;1.20;;;25.80;77.30;;;;;;6631611;88;20192;-77
2022/05/26 14:24:49;;;;;;;3.72;1.00;;;25.80;77.30;;;;;;6633136;88;20256;-77
2022/05/26 14:34:51;;;;;;;2.70;1.02;;;26.40;76.00;;;;;;6659978;88;20174;-78
2022/05/26 14:44:51;;;;;;;2.80;1.02;;;26.60;76.40;;;;;;6624628;89;20380;-77
2022/05/26 15:05:11;;;;;;;7.07;1.20;;;26.30;75.90;;;;;;6646130;88;20190;-76
2022/05/26 15:15:16;;;;;;;3.92;1.10;;;26.40;77.30;;;;;;6638014;88;20199;-79
2022/05/26 15:25:17;;;;;;;5.82;1.00;;;26.00;78.40;;;;;;6632463;88;20281;-78
2022/05/26 15:35:20;;;;;;;4.35;0.93;;;25.90;77.80;;;;;;6627486;88;20208;-78
2022/05/26 15:45:21;;;;;;;;;;;24.90;80.10;;;;;;6631294;88;20284;-78
2022/05/26 15:55:23;;;;;;;3.60;1.02;;;24.80;80.00;;;;;;6632293;89;20088;-78
2022/05/26 16:05:25;;;;;;;3.12;1.00;;;24.40;81.00;;;;;;6625301;88;20233;-78
2022/05/26 16:15:27;;;;;;;5.10;0.90;;;24.30;81.20;;;;;;6632790;88;20197;-77
2022/05/26 16:25:28;;;;;;;3.67;1.00;;;24.10;82.40;;;;;;6625754;89;20219;-76
2022/05/26 16:45:52;;;;;;;4.00;1.13;;;23.80;85.30;;;;;;6634430;88;20190;-77
2022/05/26 16:55:53;;;;;;;4.32;0.90;;;23.50;85.70;;;;;;6631509;88;20223;-77
2022/05/26 17:05:54;;;;;;;2.55;0.90;;;23.30;86.50;;;;;;6639402;88;20621;-79
2022/05/26 17:26:19;;;;;;;1.75;0.80;;;23.30;88.00;;;;;;6630406;89;20528;-79
2022/05/26 17:36:21;;;;;;;3.10;0.85;;;23.20;88.40;;;;;;6637248;88;20913;-78
2022/05/26 17:46:22;;;;;;;6.15;1.05;;;22.80;89.60;;;;;;6643715;88;20203;-79
2022/05/26 17:56:23;;;;;;;5.05;0.98;;;22.20;90.80;;;;;;6629887;88;20197;-78
2022/05/26 18:06:24;;;;;;;3.72;0.98;;;21.80;92.00;;;;;;6640605;88;20724;-79
2022/05/26 18:16:29;;;;;;;3.83;1.33;;;21.60;93.70;;;;;;6648734;78;20193;-79
2022/05/26 18:26:30;;;;;;;4.80;1.33;;;21.30;96.00;;;;;;6651256;89;20571;-80
2022/05/26 18:36:31;;;;;;;3.90;1.20;;;21.10;97.00;;;;;;6655897;89;20222;-79
2022/05/26 18:46:32;;;;;;;4.00;1.10;;;20.80;98.00;;;;;;6655435;89;20667;-80
2022/05/26 18:56:33;;;;;;;4.37;1.10;;;20.50;98.60;;;;;;6653152;89;20227;-79
2022/05/26 19:06:33;;;;;;;2.85;1.00;;;20.30;99.40;;;;;;6653202;88;20223;-79
2022/05/26 19:16:34;;;;;;;3.97;1.00;;;20.10;99.90;;;;;;6653480;88;20709;-79
2022/05/26 19:26:35;;;;;;;3.62;0.95;;;19.80;99.90;;;;;;6653324;89;20257;-79
2022/05/26 19:36:36;;;;;;;3.67;0.77;;;19.60;99.90;;;;;;6654768;89;20209;-80
2022/05/26 19:46:38;;;;;;;7.20;1.70;;;19.40;99.90;;;;;;6642811;89;20249;-79
2022/05/26 19:56:39;;;;;;;4.28;0.95;;;19.30;99.90;;;;;;6644309;88;20213;-80
2022/05/26 20:06:40;;;;;;;2.75;1.00;;;19.20;99.90;;;;;;6652927;89;20188;-79
2022/05/26 20:16:41;;;;;;;3.45;1.08;;;19.20;99.90;;;;;;6653322;89;20199;-79
2022/05/26 20:26:42;;;;;;;4.97;1.10;;;19.10;99.90;;;;;;6656117;88;20222;-79
2022/05/26 20:36:46;;;;;;;4.47;1.03;;;19.10;99.90;;;;;;6656402;88;20853;-79
2022/05/26 20:46:47;;;;;;;3.45;1.05;;;19.00;99.90;;;;;;6656363;88;20209;-79
2022/05/26 20:56:48;;;;;;;4.37;1.30;;;19.00;99.90;;;;;;6650833;88;20330;-79
2022/05/26 21:06:48;;;;;;;3.78;1.23;;;18.80;99.90;;;;;;6655299;89;20193;-79
2022/05/26 21:16:50;;;;;;;4.53;1.00;;;18.90;99.90;;;;;;6655938;88;20340;-79
2022/05/26 21:26:50;;;;;;;4.25;1.48;;;18.80;99.90;;;;;;6659894;89;20192;-79
2022/05/26 21:36:51;;;;;;;4.63;1.10;;;18.50;99.90;;;;;;6660256;89;20344;-79
2022/05/26 21:46:52;;;;;;;2.78;0.93;;;18.50;99.90;;;;;;6647290;89;20581;-79
2022/05/26 21:56:52;;;;;;;2.75;1.10;;;18.40;99.90;;;;;;6658573;89;20200;-79
2022/05/26 22:17:13;;;;;;;4.20;1.40;;;18.20;99.90;;;;;;6653919;89;20219;-79
2022/05/26 22:27:15;;;;;;;5.12;1.67;;;18.20;99.90;;;;;;6654244;89;20235;-79
2022/05/26 22:37:15;;;;;;;5.37;1.80;;;17.90;99.90;;;;;;6653448;89;20199;-78
2022/05/26 22:47:16;;;;;;;6.93;1.92;;;17.40;99.90;;;;;;6653845;89;20206;-79
2022/05/26 22:57:24;;;;;;;6.03;1.90;;;17.30;99.90;;;;;;6641605;89;20665;-79
2022/05/26 23:07:25;;;;;;;5.05;1.58;;;17.10;99.90;;;;;;6635311;88;20177;-78
2022/05/26 23:17:26;;;;;;;6.37;1.50;;;17.00;99.90;;;;;;6635841;88;20282;-78
2022/05/26 23:27:26;;;;;;;8.68;1.58;;;17.00;99.90;;;;;;6632886;89;20326;-77
2022/05/26 23:37:27;;;;;;;4.07;1.50;;;16.80;99.90;;;;;;6640014;89;20200;-78
2022/05/26 23:47:27;;;;;;;2.80;1.40;;;16.70;99.90;;;;;;6651535;89;20192;-78
